sensor_id;sensor_type;location;lat;lon;timestamp;P1;durP1;ratioP1;P2;durP2;ratioP2
67839;SDS011;54636;51.684;5.142;2023-08-12T00:00:06;14.93;;;7.97;;
67839;SDS011;54636;51.684;5.142;2023-08-12T00:02:42;14.90;;;6.85;;
67839;SDS011;54636;51.684;5.142;2023-08-12T00:07:36;10.95;;;6.13;;
67839;SDS011;54636;51.684;5.142;2023-08-12T00:10:02;11.07;;;7.30;;
67839;SDS011;54636;51.684;5.142;2023-08-12T00:12:32;12.77;;;7.72;;
67839;SDS011;54636;51.684;5.142;2023-08-12T00:14:59;14.85;;;8.50;;
67839;SDS011;54636;51.684;5.142;2023-08-12T00:17:24;13.77;;;8.45;;
67839;SDS011;54636;51.684;5.142;2023-08-12T00:19:49;13.73;;;10.02;;
67839;SDS011;54636;51.684;5.142;2023-08-12T00:22:15;13.02;;;8.77;;
67839;SDS011;54636;51.684;5.142;2023-08-12T00:24:41;14.82;;;9.20;;
67839;SDS011;54636;51.684;5.142;2023-08-12T00:27:06;16.50;;;10.15;;
67839;SDS011;54636;51.684;5.142;2023-08-12T00:29:33;14.00;;;9.40;;
67839;SDS011;54636;51.684;5.142;2023-08-12T00:31:59;12.77;;;9.18;;
67839;SDS011;54636;51.684;5.142;2023-08-12T00:34:26;12.50;;;9.55;;
67839;SDS011;54636;51.684;5.142;2023-08-12T00:36:52;11.90;;;8.63;;
67839;SDS011;54636;51.684;5.142;2023-08-12T00:39:17;17.88;;;9.70;;
67839;SDS011;54636;51.684;5.142;2023-08-12T00:41:43;14.52;;;10.30;;
67839;SDS011;54636;51.684;5.142;2023-08-12T00:44:08;11.50;;;10.30;;
67839;SDS011;54636;51.684;5.142;2023-08-12T00:46:34;13.43;;;11.23;;
67839;SDS011;54636;51.684;5.142;2023-08-12T00:49:00;13.55;;;10.27;;
67839;SDS011;54636;51.684;5.142;2023-08-12T00:51:25;17.63;;;10.90;;
67839;SDS011;54636;51.684;5.142;2023-08-12T00:53:52;17.55;;;11.30;;
67839;SDS011;54636;51.684;5.142;2023-08-12T00:56:17;18.63;;;11.60;;
67839;SDS011;54636;51.684;5.142;2023-08-12T00:58:43;20.60;;;11.05;;
67839;SDS011;54636;51.684;5.142;2023-08-12T01:01:10;17.02;;;11.00;;
67839;SDS011;54636;51.684;5.142;2023-08-12T01:03:36;18.88;;;11.18;;
67839;SDS011;54636;51.684;5.142;2023-08-12T01:06:02;13.82;;;10.32;;
67839;SDS011;54636;51.684;5.142;2023-08-12T01:08:28;14.23;;;11.55;;
67839;SDS011;54636;51.684;5.142;2023-08-12T01:13:52;17.75;;;11.10;;
67839;SDS011;54636;51.684;5.142;2023-08-12T01:16:22;13.60;;;9.95;;
67839;SDS011;54636;51.684;5.142;2023-08-12T01:18:53;18.95;;;11.32;;
67839;SDS011;54636;51.684;5.142;2023-08-12T01:21:20;15.55;;;11.25;;
67839;SDS011;54636;51.684;5.142;2023-08-12T01:23:46;20.20;;;11.25;;
67839;SDS011;54636;51.684;5.142;2023-08-12T01:26:12;12.43;;;10.98;;
67839;SDS011;54636;51.684;5.142;2023-08-12T01:28:37;20.10;;;10.77;;
67839;SDS011;54636;51.684;5.142;2023-08-12T01:31:06;20.35;;;11.70;;
67839;SDS011;54636;51.684;5.142;2023-08-12T01:33:52;20.35;;;10.48;;
67839;SDS011;54636;51.684;5.142;2023-08-12T01:36:21;13.45;;;10.27;;
67839;SDS011;54636;51.684;5.142;2023-08-12T01:38:51;18.10;;;11.00;;
67839;SDS011;54636;51.684;5.142;2023-08-12T01:41:20;24.77;;;12.48;;
67839;SDS011;54636;51.684;5.142;2023-08-12T01:43:48;15.32;;;12.30;;
67839;SDS011;54636;51.684;5.142;2023-08-12T01:46:13;19.30;;;11.52;;
67839;SDS011;54636;51.684;5.142;2023-08-12T01:48:39;13.93;;;11.25;;
67839;SDS011;54636;51.684;5.142;2023-08-12T01:51:04;13.00;;;10.65;;
67839;SDS011;54636;51.684;5.142;2023-08-12T01:53:30;13.80;;;11.48;;
67839;SDS011;54636;51.684;5.142;2023-08-12T01:55:55;19.23;;;11.23;;
67839;SDS011;54636;51.684;5.142;2023-08-12T01:58:21;19.30;;;11.77;;
67839;SDS011;54636;51.684;5.142;2023-08-12T02:00:46;16.83;;;11.32;;
67839;SDS011;54636;51.684;5.142;2023-08-12T02:03:12;14.50;;;11.07;;
67839;SDS011;54636;51.684;5.142;2023-08-12T02:05:37;17.38;;;11.02;;
67839;SDS011;54636;51.684;5.142;2023-08-12T02:08:06;16.23;;;11.77;;
67839;SDS011;54636;51.684;5.142;2023-08-12T02:10:31;14.45;;;11.57;;
67839;SDS011;54636;51.684;5.142;2023-08-12T02:12:57;16.80;;;11.15;;
67839;SDS011;54636;51.684;5.142;2023-08-12T02:15:22;21.60;;;11.65;;
67839;SDS011;54636;51.684;5.142;2023-08-12T02:17:48;17.42;;;11.55;;
67839;SDS011;54636;51.684;5.142;2023-08-12T02:20:14;16.45;;;11.35;;
67839;SDS011;54636;51.684;5.142;2023-08-12T02:22:39;15.35;;;11.95;;
67839;SDS011;54636;51.684;5.142;2023-08-12T02:25:04;14.82;;;11.20;;
67839;SDS011;54636;51.684;5.142;2023-08-12T02:27:30;16.83;;;12.35;;
67839;SDS011;54636;51.684;5.142;2023-08-12T02:29:55;21.35;;;11.85;;
67839;SDS011;54636;51.684;5.142;2023-08-12T02:32:21;20.75;;;12.07;;
67839;SDS011;54636;51.684;5.142;2023-08-12T02:34:46;14.18;;;9.85;;
67839;SDS011;54636;51.684;5.142;2023-08-12T02:37:11;16.27;;;10.80;;
67839;SDS011;54636;51.684;5.142;2023-08-12T02:39:38;17.20;;;11.95;;
67839;SDS011;54636;51.684;5.142;2023-08-12T02:42:03;15.63;;;11.40;;
67839;SDS011;54636;51.684;5.142;2023-08-12T02:44:29;18.10;;;10.68;;
67839;SDS011;54636;51.684;5.142;2023-08-12T02:46:54;19.58;;;11.07;;
67839;SDS011;54636;51.684;5.142;2023-08-12T02:49:20;15.27;;;11.27;;
67839;SDS011;54636;51.684;5.142;2023-08-12T02:51:46;12.55;;;10.32;;
67839;SDS011;54636;51.684;5.142;2023-08-12T02:54:11;11.90;;;9.98;;
67839;SDS011;54636;51.684;5.142;2023-08-12T02:56:36;19.67;;;12.25;;
67839;SDS011;54636;51.684;5.142;2023-08-12T02:59:02;12.98;;;10.10;;
67839;SDS011;54636;51.684;5.142;2023-08-12T03:01:27;14.80;;;10.63;;
67839;SDS011;54636;51.684;5.142;2023-08-12T03:03:53;19.27;;;10.27;;
67839;SDS011;54636;51.684;5.142;2023-08-12T03:06:18;17.38;;;10.32;;
67839;SDS011;54636;51.684;5.142;2023-08-12T03:08:44;14.38;;;9.65;;
67839;SDS011;54636;51.684;5.142;2023-08-12T03:11:09;16.02;;;10.13;;
67839;SDS011;54636;51.684;5.142;2023-08-12T03:13:34;13.30;;;9.70;;
67839;SDS011;54636;51.684;5.142;2023-08-12T03:16:00;14.60;;;10.32;;
67839;SDS011;54636;51.684;5.142;2023-08-12T03:18:25;15.05;;;9.88;;
67839;SDS011;54636;51.684;5.142;2023-08-12T03:20:51;11.32;;;9.65;;
67839;SDS011;54636;51.684;5.142;2023-08-12T03:23:16;12.93;;;9.98;;
67839;SDS011;54636;51.684;5.142;2023-08-12T03:25:42;17.00;;;9.98;;
67839;SDS011;54636;51.684;5.142;2023-08-12T03:28:07;13.55;;;9.63;;
67839;SDS011;54636;51.684;5.142;2023-08-12T03:30:33;14.50;;;8.95;;
67839;SDS011;54636;51.684;5.142;2023-08-12T03:32:58;14.15;;;8.27;;
67839;SDS011;54636;51.684;5.142;2023-08-12T03:35:24;15.90;;;8.63;;
67839;SDS011;54636;51.684;5.142;2023-08-12T03:37:49;9.95;;;7.65;;
67839;SDS011;54636;51.684;5.142;2023-08-12T03:40:16;17.33;;;8.38;;
67839;SDS011;54636;51.684;5.142;2023-08-12T03:42:41;13.57;;;7.47;;
67839;SDS011;54636;51.684;5.142;2023-08-12T03:45:07;8.15;;;7.43;;
67839;SDS011;54636;51.684;5.142;2023-08-12T03:47:33;11.60;;;7.55;;
67839;SDS011;54636;51.684;5.142;2023-08-12T03:49:58;11.30;;;7.78;;
67839;SDS011;54636;51.684;5.142;2023-08-12T03:52:23;10.77;;;7.25;;
67839;SDS011;54636;51.684;5.142;2023-08-12T03:54:49;12.27;;;7.65;;
67839;SDS011;54636;51.684;5.142;2023-08-12T03:57:14;14.30;;;7.70;;
67839;SDS011;54636;51.684;5.142;2023-08-12T03:59:40;8.48;;;6.82;;
67839;SDS011;54636;51.684;5.142;2023-08-12T04:02:05;9.23;;;6.68;;
67839;SDS011;54636;51.684;5.142;2023-08-12T04:04:31;11.38;;;6.40;;
67839;SDS011;54636;51.684;5.142;2023-08-12T04:06:56;15.70;;;6.72;;
67839;SDS011;54636;51.684;5.142;2023-08-12T04:09:22;9.45;;;6.07;;
67839;SDS011;54636;51.684;5.142;2023-08-12T04:11:47;8.90;;;5.78;;
67839;SDS011;54636;51.684;5.142;2023-08-12T04:14:13;13.70;;;6.38;;
67839;SDS011;54636;51.684;5.142;2023-08-12T04:16:39;12.75;;;5.68;;
67839;SDS011;54636;51.684;5.142;2023-08-12T04:19:04;10.30;;;5.93;;
67839;SDS011;54636;51.684;5.142;2023-08-12T04:21:30;9.70;;;5.80;;
67839;SDS011;54636;51.684;5.142;2023-08-12T04:23:55;13.63;;;5.60;;
67839;SDS011;54636;51.684;5.142;2023-08-12T04:26:21;11.13;;;5.80;;
67839;SDS011;54636;51.684;5.142;2023-08-12T04:28:46;10.88;;;5.97;;
67839;SDS011;54636;51.684;5.142;2023-08-12T04:31:12;9.63;;;5.60;;
67839;SDS011;54636;51.684;5.142;2023-08-12T04:33:37;14.38;;;5.82;;
67839;SDS011;54636;51.684;5.142;2023-08-12T04:36:03;13.65;;;6.15;;
67839;SDS011;54636;51.684;5.142;2023-08-12T04:38:29;10.85;;;6.53;;
67839;SDS011;54636;51.684;5.142;2023-08-12T04:40:56;11.70;;;6.45;;
67839;SDS011;54636;51.684;5.142;2023-08-12T04:43:21;8.27;;;5.72;;
67839;SDS011;54636;51.684;5.142;2023-08-12T04:45:48;8.40;;;6.07;;
67839;SDS011;54636;51.684;5.142;2023-08-12T04:48:14;6.85;;;5.68;;
67839;SDS011;54636;51.684;5.142;2023-08-12T04:50:41;12.05;;;6.72;;
67839;SDS011;54636;51.684;5.142;2023-08-12T04:53:07;11.63;;;6.70;;
67839;SDS011;54636;51.684;5.142;2023-08-12T04:55:33;10.75;;;6.80;;
67839;SDS011;54636;51.684;5.142;2023-08-12T04:57:59;12.07;;;7.05;;
67839;SDS011;54636;51.684;5.142;2023-08-12T05:00:25;10.38;;;7.18;;
67839;SDS011;54636;51.684;5.142;2023-08-12T05:02:51;8.63;;;6.65;;
67839;SDS011;54636;51.684;5.142;2023-08-12T05:05:16;16.98;;;7.10;;
67839;SDS011;54636;51.684;5.142;2023-08-12T05:07:42;8.68;;;7.05;;
67839;SDS011;54636;51.684;5.142;2023-08-12T05:10:09;15.68;;;7.28;;
67839;SDS011;54636;51.684;5.142;2023-08-12T05:12:34;13.50;;;7.28;;
67839;SDS011;54636;51.684;5.142;2023-08-12T05:15:00;11.52;;;7.35;;
67839;SDS011;54636;51.684;5.142;2023-08-12T05:17:25;15.07;;;6.57;;
67839;SDS011;54636;51.684;5.142;2023-08-12T05:19:51;13.70;;;6.95;;
67839;SDS011;54636;51.684;5.142;2023-08-12T05:22:16;11.35;;;6.75;;
67839;SDS011;54636;51.684;5.142;2023-08-12T05:24:42;8.95;;;6.60;;
67839;SDS011;54636;51.684;5.142;2023-08-12T05:27:07;8.38;;;6.15;;
67839;SDS011;54636;51.684;5.142;2023-08-12T05:29:33;8.75;;;6.40;;
67839;SDS011;54636;51.684;5.142;2023-08-12T05:31:58;7.68;;;5.65;;
67839;SDS011;54636;51.684;5.142;2023-08-12T05:34:23;9.68;;;5.97;;
67839;SDS011;54636;51.684;5.142;2023-08-12T05:36:49;8.18;;;6.00;;
67839;SDS011;54636;51.684;5.142;2023-08-12T05:39:14;9.90;;;5.60;;
67839;SDS011;54636;51.684;5.142;2023-08-12T05:41:43;7.80;;;5.32;;
67839;SDS011;54636;51.684;5.142;2023-08-12T05:44:08;12.75;;;5.97;;
67839;SDS011;54636;51.684;5.142;2023-08-12T05:46:34;9.43;;;5.32;;
67839;SDS011;54636;51.684;5.142;2023-08-12T05:48:59;7.82;;;5.78;;
67839;SDS011;54636;51.684;5.142;2023-08-12T05:51:24;8.85;;;5.97;;
67839;SDS011;54636;51.684;5.142;2023-08-12T05:53:51;5.97;;;5.45;;
67839;SDS011;54636;51.684;5.142;2023-08-12T05:56:16;7.72;;;5.03;;
67839;SDS011;54636;51.684;5.142;2023-08-12T05:58:42;7.10;;;4.75;;
67839;SDS011;54636;51.684;5.142;2023-08-12T06:01:07;7.85;;;4.38;;
67839;SDS011;54636;51.684;5.142;2023-08-12T06:03:32;4.82;;;3.97;;
67839;SDS011;54636;51.684;5.142;2023-08-12T06:05:58;4.28;;;3.97;;
67839;SDS011;54636;51.684;5.142;2023-08-12T06:08:23;4.30;;;3.90;;
67839;SDS011;54636;51.684;5.142;2023-08-12T06:10:49;3.67;;;3.38;;
67839;SDS011;54636;51.684;5.142;2023-08-12T06:13:14;3.88;;;3.60;;
67839;SDS011;54636;51.684;5.142;2023-08-12T06:15:39;3.28;;;3.03;;
67839;SDS011;54636;51.684;5.142;2023-08-12T06:18:05;3.20;;;3.00;;
67839;SDS011;54636;51.684;5.142;2023-08-12T06:20:30;3.25;;;3.05;;
67839;SDS011;54636;51.684;5.142;2023-08-12T06:22:56;3.22;;;3.03;;
67839;SDS011;54636;51.684;5.142;2023-08-12T06:25:22;3.20;;;3.00;;
67839;SDS011;54636;51.684;5.142;2023-08-12T06:27:47;3.40;;;3.17;;
67839;SDS011;54636;51.684;5.142;2023-08-12T06:30:13;2.47;;;2.38;;
67839;SDS011;54636;51.684;5.142;2023-08-12T06:32:39;2.83;;;2.63;;
67839;SDS011;54636;51.684;5.142;2023-08-12T06:35:06;2.65;;;2.53;;
67839;SDS011;54636;51.684;5.142;2023-08-12T06:37:35;2.75;;;2.55;;
67839;SDS011;54636;51.684;5.142;2023-08-12T06:40:01;2.70;;;2.50;;
67839;SDS011;54636;51.684;5.142;2023-08-12T06:42:26;2.30;;;2.20;;
67839;SDS011;54636;51.684;5.142;2023-08-12T06:44:55;2.47;;;2.28;;
67839;SDS011;54636;51.684;5.142;2023-08-12T06:47:22;2.47;;;2.28;;
67839;SDS011;54636;51.684;5.142;2023-08-12T06:49:47;2.15;;;2.00;;
67839;SDS011;54636;51.684;5.142;2023-08-12T06:52:13;2.00;;;1.90;;
67839;SDS011;54636;51.684;5.142;2023-08-12T06:54:38;2.08;;;1.98;;
67839;SDS011;54636;51.684;5.142;2023-08-12T06:57:04;2.13;;;1.90;;
67839;SDS011;54636;51.684;5.142;2023-08-12T06:59:29;1.90;;;1.80;;
67839;SDS011;54636;51.684;5.142;2023-08-12T07:01:55;2.20;;;2.00;;
67839;SDS011;54636;51.684;5.142;2023-08-12T07:04:21;1.88;;;1.73;;
67839;SDS011;54636;51.684;5.142;2023-08-12T07:06:46;5.03;;;1.40;;
67839;SDS011;54636;51.684;5.142;2023-08-12T07:09:12;2.00;;;1.80;;
67839;SDS011;54636;51.684;5.142;2023-08-12T07:11:38;1.50;;;1.40;;
67839;SDS011;54636;51.684;5.142;2023-08-12T07:14:03;2.15;;;1.58;;
67839;SDS011;54636;51.684;5.142;2023-08-12T07:16:29;1.50;;;1.50;;
67839;SDS011;54636;51.684;5.142;2023-08-12T07:18:54;1.50;;;1.40;;
67839;SDS011;54636;51.684;5.142;2023-08-12T07:21:20;1.65;;;1.60;;
67839;SDS011;54636;51.684;5.142;2023-08-12T07:23:45;1.38;;;1.38;;
67839;SDS011;54636;51.684;5.142;2023-08-12T07:26:11;1.60;;;1.35;;
67839;SDS011;54636;51.684;5.142;2023-08-12T07:28:36;1.48;;;1.40;;
67839;SDS011;54636;51.684;5.142;2023-08-12T07:31:01;1.70;;;1.60;;
67839;SDS011;54636;51.684;5.142;2023-08-12T07:33:27;2.33;;;1.58;;
67839;SDS011;54636;51.684;5.142;2023-08-12T07:35:52;1.60;;;1.60;;
67839;SDS011;54636;51.684;5.142;2023-08-12T07:38:18;1.67;;;1.60;;
67839;SDS011;54636;51.684;5.142;2023-08-12T07:40:43;2.17;;;1.75;;
67839;SDS011;54636;51.684;5.142;2023-08-12T07:43:09;7.10;;;2.15;;
67839;SDS011;54636;51.684;5.142;2023-08-12T07:45:34;2.40;;;1.70;;
67839;SDS011;54636;51.684;5.142;2023-08-12T07:48:00;1.30;;;1.30;;
67839;SDS011;54636;51.684;5.142;2023-08-12T07:50:25;3.03;;;1.35;;
67839;SDS011;54636;51.684;5.142;2023-08-12T07:52:50;1.45;;;1.45;;
67839;SDS011;54636;51.684;5.142;2023-08-12T07:55:16;1.63;;;1.52;;
67839;SDS011;54636;51.684;5.142;2023-08-12T07:57:44;1.25;;;1.25;;
67839;SDS011;54636;51.684;5.142;2023-08-12T08:00:10;1.60;;;1.50;;
67839;SDS011;54636;51.684;5.142;2023-08-12T08:02:37;1.60;;;1.50;;
67839;SDS011;54636;51.684;5.142;2023-08-12T08:05:03;1.88;;;1.77;;
67839;SDS011;54636;51.684;5.142;2023-08-12T08:07:29;1.48;;;1.38;;
67839;SDS011;54636;51.684;5.142;2023-08-12T08:09:54;1.30;;;1.30;;
67839;SDS011;54636;51.684;5.142;2023-08-12T08:12:20;2.08;;;1.25;;
67839;SDS011;54636;51.684;5.142;2023-08-12T08:14:45;1.10;;;1.10;;
67839;SDS011;54636;51.684;5.142;2023-08-12T08:17:11;0.80;;;0.80;;
67839;SDS011;54636;51.684;5.142;2023-08-12T08:19:36;0.82;;;0.82;;
67839;SDS011;54636;51.684;5.142;2023-08-12T08:22:02;0.68;;;0.68;;
67839;SDS011;54636;51.684;5.142;2023-08-12T08:24:28;0.70;;;0.70;;
67839;SDS011;54636;51.684;5.142;2023-08-12T08:26:54;1.00;;;1.00;;
67839;SDS011;54636;51.684;5.142;2023-08-12T08:29:21;0.88;;;0.88;;
67839;SDS011;54636;51.684;5.142;2023-08-12T08:31:47;1.10;;;0.70;;
67839;SDS011;54636;51.684;5.142;2023-08-12T08:34:13;0.90;;;0.63;;
67839;SDS011;54636;51.684;5.142;2023-08-12T08:36:39;1.45;;;0.60;;
67839;SDS011;54636;51.684;5.142;2023-08-12T08:39:05;0.82;;;0.82;;
67839;SDS011;54636;51.684;5.142;2023-08-12T08:41:30;1.60;;;1.10;;
67839;SDS011;54636;51.684;5.142;2023-08-12T08:43:59;0.90;;;0.90;;
67839;SDS011;54636;51.684;5.142;2023-08-12T08:46:29;3.25;;;1.13;;
67839;SDS011;54636;51.684;5.142;2023-08-12T08:48:54;1.30;;;0.88;;
67839;SDS011;54636;51.684;5.142;2023-08-12T08:51:23;1.23;;;0.68;;
67839;SDS011;54636;51.684;5.142;2023-08-12T08:53:51;2.58;;;0.70;;
67839;SDS011;54636;51.684;5.142;2023-08-12T08:56:19;0.85;;;0.73;;
67839;SDS011;54636;51.684;5.142;2023-08-12T08:58:45;1.10;;;0.50;;
67839;SDS011;54636;51.684;5.142;2023-08-12T09:01:11;2.20;;;0.80;;
67839;SDS011;54636;51.684;5.142;2023-08-12T09:03:38;1.15;;;0.75;;
67839;SDS011;54636;51.684;5.142;2023-08-12T09:06:05;1.60;;;0.80;;
67839;SDS011;54636;51.684;5.142;2023-08-12T09:08:31;2.95;;;0.75;;
67839;SDS011;54636;51.684;5.142;2023-08-12T09:10:57;2.28;;;0.85;;
67839;SDS011;54636;51.684;5.142;2023-08-12T09:13:25;1.50;;;0.85;;
67839;SDS011;54636;51.684;5.142;2023-08-12T09:15:50;1.08;;;0.85;;
67839;SDS011;54636;51.684;5.142;2023-08-12T09:18:16;2.38;;;1.00;;
67839;SDS011;54636;51.684;5.142;2023-08-12T09:20:42;2.10;;;1.08;;
67839;SDS011;54636;51.684;5.142;2023-08-12T09:23:08;3.38;;;1.13;;
67839;SDS011;54636;51.684;5.142;2023-08-12T09:25:36;3.00;;;1.17;;
67839;SDS011;54636;51.684;5.142;2023-08-12T09:28:09;4.30;;;1.50;;
67839;SDS011;54636;51.684;5.142;2023-08-12T09:30:35;2.97;;;1.17;;
67839;SDS011;54636;51.684;5.142;2023-08-12T09:33:02;2.00;;;1.10;;
67839;SDS011;54636;51.684;5.142;2023-08-12T09:38:05;5.03;;;1.20;;
67839;SDS011;54636;51.684;5.142;2023-08-12T09:40:33;3.95;;;1.80;;
67839;SDS011;54636;51.684;5.142;2023-08-12T09:43:02;5.47;;;1.58;;
67839;SDS011;54636;51.684;5.142;2023-08-12T09:45:29;6.85;;;1.60;;
67839;SDS011;54636;51.684;5.142;2023-08-12T09:47:56;6.13;;;1.30;;
67839;SDS011;54636;51.684;5.142;2023-08-12T09:50:22;6.20;;;1.73;;
67839;SDS011;54636;51.684;5.142;2023-08-12T09:52:50;6.38;;;1.25;;
67839;SDS011;54636;51.684;5.142;2023-08-12T09:55:17;3.83;;;1.60;;
67839;SDS011;54636;51.684;5.142;2023-08-12T09:57:46;5.32;;;1.60;;
67839;SDS011;54636;51.684;5.142;2023-08-12T10:00:14;3.03;;;1.58;;
67839;SDS011;54636;51.684;5.142;2023-08-12T10:02:47;6.72;;;1.63;;
67839;SDS011;54636;51.684;5.142;2023-08-12T10:05:16;7.78;;;1.60;;
67839;SDS011;54636;51.684;5.142;2023-08-12T10:07:47;3.75;;;1.92;;
67839;SDS011;54636;51.684;5.142;2023-08-12T10:10:13;5.95;;;1.70;;
67839;SDS011;54636;51.684;5.142;2023-08-12T10:12:39;4.75;;;1.52;;
67839;SDS011;54636;51.684;5.142;2023-08-12T10:15:07;4.88;;;1.27;;
67839;SDS011;54636;51.684;5.142;2023-08-12T10:17:34;4.63;;;1.40;;
67839;SDS011;54636;51.684;5.142;2023-08-12T10:20:01;2.65;;;1.30;;
67839;SDS011;54636;51.684;5.142;2023-08-12T10:22:32;6.57;;;1.55;;
67839;SDS011;54636;51.684;5.142;2023-08-12T10:25:01;3.72;;;1.48;;
67839;SDS011;54636;51.684;5.142;2023-08-12T10:27:28;4.45;;;1.50;;
67839;SDS011;54636;51.684;5.142;2023-08-12T10:29:57;3.03;;;1.45;;
67839;SDS011;54636;51.684;5.142;2023-08-12T10:32:23;12.32;;;2.78;;
67839;SDS011;54636;51.684;5.142;2023-08-12T10:34:56;4.30;;;1.33;;
67839;SDS011;54636;51.684;5.142;2023-08-12T10:37:26;5.00;;;1.70;;
67839;SDS011;54636;51.684;5.142;2023-08-12T10:39:52;4.55;;;1.70;;
67839;SDS011;54636;51.684;5.142;2023-08-12T10:45:14;5.47;;;1.63;;
67839;SDS011;54636;51.684;5.142;2023-08-12T10:47:41;4.63;;;1.67;;
67839;SDS011;54636;51.684;5.142;2023-08-12T10:50:19;4.97;;;1.85;;
67839;SDS011;54636;51.684;5.142;2023-08-12T10:52:45;5.88;;;1.45;;
67839;SDS011;54636;51.684;5.142;2023-08-12T10:55:18;5.78;;;1.42;;
67839;SDS011;54636;51.684;5.142;2023-08-12T10:57:45;7.15;;;1.98;;
67839;SDS011;54636;51.684;5.142;2023-08-12T11:00:14;4.78;;;1.75;;
67839;SDS011;54636;51.684;5.142;2023-08-12T11:02:44;8.73;;;2.65;;
67839;SDS011;54636;51.684;5.142;2023-08-12T11:05:10;4.93;;;1.92;;
67839;SDS011;54636;51.684;5.142;2023-08-12T11:07:43;5.28;;;1.80;;
67839;SDS011;54636;51.684;5.142;2023-08-12T11:10:20;5.10;;;1.90;;
67839;SDS011;54636;51.684;5.142;2023-08-12T11:12:54;8.57;;;2.47;;
67839;SDS011;54636;51.684;5.142;2023-08-12T11:15:30;8.35;;;2.33;;
67839;SDS011;54636;51.684;5.142;2023-08-12T11:18:07;10.32;;;2.22;;
67839;SDS011;54636;51.684;5.142;2023-08-12T11:20:51;6.45;;;2.03;;
67839;SDS011;54636;51.684;5.142;2023-08-12T11:23:17;6.45;;;2.20;;
67839;SDS011;54636;51.684;5.142;2023-08-12T11:25:44;8.07;;;1.80;;
67839;SDS011;54636;51.684;5.142;2023-08-12T11:28:30;11.55;;;2.42;;
67839;SDS011;54636;51.684;5.142;2023-08-12T11:30:55;4.63;;;1.70;;
67839;SDS011;54636;51.684;5.142;2023-08-12T11:33:21;6.47;;;1.80;;
67839;SDS011;54636;51.684;5.142;2023-08-12T11:35:48;2.95;;;1.42;;
67839;SDS011;54636;51.684;5.142;2023-08-12T11:38:14;8.25;;;2.10;;
67839;SDS011;54636;51.684;5.142;2023-08-12T11:40:40;7.82;;;1.90;;
67839;SDS011;54636;51.684;5.142;2023-08-12T11:43:05;8.45;;;2.25;;
67839;SDS011;54636;51.684;5.142;2023-08-12T11:45:31;7.85;;;2.30;;
67839;SDS011;54636;51.684;5.142;2023-08-12T11:47:56;6.72;;;2.03;;
67839;SDS011;54636;51.684;5.142;2023-08-12T11:50:23;4.97;;;2.15;;
67839;SDS011;54636;51.684;5.142;2023-08-12T11:52:53;7.70;;;2.10;;
67839;SDS011;54636;51.684;5.142;2023-08-12T11:55:20;5.72;;;1.90;;
67839;SDS011;54636;51.684;5.142;2023-08-12T11:57:46;6.78;;;2.60;;
67839;SDS011;54636;51.684;5.142;2023-08-12T12:00:12;4.70;;;2.17;;
67839;SDS011;54636;51.684;5.142;2023-08-12T12:02:39;5.50;;;1.65;;
67839;SDS011;54636;51.684;5.142;2023-08-12T12:05:10;9.60;;;2.50;;
67839;SDS011;54636;51.684;5.142;2023-08-12T12:07:36;7.43;;;2.08;;
67839;SDS011;54636;51.684;5.142;2023-08-12T12:10:03;8.63;;;2.50;;
67839;SDS011;54636;51.684;5.142;2023-08-12T12:12:30;7.65;;;2.60;;
67839;SDS011;54636;51.684;5.142;2023-08-12T12:17:28;6.53;;;2.45;;
67839;SDS011;54636;51.684;5.142;2023-08-12T12:19:57;6.30;;;2.10;;
67839;SDS011;54636;51.684;5.142;2023-08-12T12:22:30;9.00;;;2.22;;
67839;SDS011;54636;51.684;5.142;2023-08-12T12:25:00;5.10;;;2.17;;
67839;SDS011;54636;51.684;5.142;2023-08-12T12:27:32;10.57;;;2.70;;
67839;SDS011;54636;51.684;5.142;2023-08-12T12:29:58;7.75;;;2.30;;
67839;SDS011;54636;51.684;5.142;2023-08-12T12:32:24;5.00;;;2.33;;
67839;SDS011;54636;51.684;5.142;2023-08-12T12:34:49;15.65;;;2.22;;
67839;SDS011;54636;51.684;5.142;2023-08-12T12:37:16;3.92;;;2.58;;
67839;SDS011;54636;51.684;5.142;2023-08-12T12:39:41;5.75;;;2.03;;
67839;SDS011;54636;51.684;5.142;2023-08-12T12:42:07;9.65;;;2.30;;
67839;SDS011;54636;51.684;5.142;2023-08-12T12:44:33;6.28;;;2.08;;
67839;SDS011;54636;51.684;5.142;2023-08-12T12:46:58;6.30;;;2.42;;
67839;SDS011;54636;51.684;5.142;2023-08-12T12:49:24;4.55;;;1.83;;
67839;SDS011;54636;51.684;5.142;2023-08-12T12:51:59;6.75;;;2.17;;
67839;SDS011;54636;51.684;5.142;2023-08-12T12:54:33;5.10;;;2.10;;
67839;SDS011;54636;51.684;5.142;2023-08-12T12:57:49;16.73;;;2.78;;
67839;SDS011;54636;51.684;5.142;2023-08-12T13:00:15;10.85;;;2.78;;
67839;SDS011;54636;51.684;5.142;2023-08-12T13:02:41;7.65;;;2.25;;
67839;SDS011;54636;51.684;5.142;2023-08-12T13:05:07;10.95;;;2.45;;
67839;SDS011;54636;51.684;5.142;2023-08-12T13:07:33;4.88;;;2.20;;
67839;SDS011;54636;51.684;5.142;2023-08-12T13:09:59;7.90;;;3.20;;
67839;SDS011;54636;51.684;5.142;2023-08-12T13:16:31;9.70;;;2.92;;
67839;SDS011;54636;51.684;5.142;2023-08-12T13:18:57;7.82;;;2.88;;
67839;SDS011;54636;51.684;5.142;2023-08-12T13:21:26;6.15;;;2.22;;
67839;SDS011;54636;51.684;5.142;2023-08-12T13:23:52;11.02;;;2.58;;
67839;SDS011;54636;51.684;5.142;2023-08-12T13:26:18;6.80;;;2.72;;
67839;SDS011;54636;51.684;5.142;2023-08-12T13:28:48;10.88;;;2.75;;
67839;SDS011;54636;51.684;5.142;2023-08-12T13:35:12;8.30;;;2.00;;
67839;SDS011;54636;51.684;5.142;2023-08-12T13:37:37;7.97;;;2.15;;
67839;SDS011;54636;51.684;5.142;2023-08-12T13:40:03;9.63;;;2.20;;
67839;SDS011;54636;51.684;5.142;2023-08-12T13:42:29;6.97;;;2.20;;
67839;SDS011;54636;51.684;5.142;2023-08-12T13:44:54;3.70;;;1.80;;
67839;SDS011;54636;51.684;5.142;2023-08-12T13:47:21;4.88;;;2.00;;
67839;SDS011;54636;51.684;5.142;2023-08-12T13:49:46;7.68;;;2.25;;
67839;SDS011;54636;51.684;5.142;2023-08-12T13:52:11;9.43;;;2.65;;
67839;SDS011;54636;51.684;5.142;2023-08-12T13:54:37;10.00;;;2.15;;
67839;SDS011;54636;51.684;5.142;2023-08-12T13:57:03;7.43;;;2.28;;
67839;SDS011;54636;51.684;5.142;2023-08-12T13:59:29;6.53;;;2.00;;
67839;SDS011;54636;51.684;5.142;2023-08-12T14:01:54;5.38;;;1.85;;
67839;SDS011;54636;51.684;5.142;2023-08-12T14:04:20;9.48;;;1.90;;
67839;SDS011;54636;51.684;5.142;2023-08-12T14:06:46;13.68;;;2.20;;
67839;SDS011;54636;51.684;5.142;2023-08-12T14:09:14;5.80;;;1.95;;
67839;SDS011;54636;51.684;5.142;2023-08-12T14:11:42;6.18;;;2.40;;
67839;SDS011;54636;51.684;5.142;2023-08-12T14:14:07;7.13;;;1.88;;
67839;SDS011;54636;51.684;5.142;2023-08-12T14:16:33;6.07;;;1.88;;
67839;SDS011;54636;51.684;5.142;2023-08-12T14:18:58;7.97;;;2.20;;
67839;SDS011;54636;51.684;5.142;2023-08-12T14:21:24;7.30;;;2.00;;
67839;SDS011;54636;51.684;5.142;2023-08-12T14:23:49;5.70;;;2.22;;
67839;SDS011;54636;51.684;5.142;2023-08-12T14:26:15;8.00;;;2.25;;
67839;SDS011;54636;51.684;5.142;2023-08-12T14:28:40;5.13;;;2.10;;
67839;SDS011;54636;51.684;5.142;2023-08-12T14:31:05;3.30;;;1.90;;
67839;SDS011;54636;51.684;5.142;2023-08-12T14:33:34;8.43;;;2.78;;
67839;SDS011;54636;51.684;5.142;2023-08-12T14:36:02;5.53;;;2.10;;
67839;SDS011;54636;51.684;5.142;2023-08-12T14:38:28;6.72;;;2.65;;
67839;SDS011;54636;51.684;5.142;2023-08-12T14:40:54;6.63;;;3.40;;
67839;SDS011;54636;51.684;5.142;2023-08-12T14:43:19;5.78;;;4.45;;
67839;SDS011;54636;51.684;5.142;2023-08-12T14:45:44;5.82;;;2.28;;
67839;SDS011;54636;51.684;5.142;2023-08-12T14:48:13;5.85;;;2.47;;
67839;SDS011;54636;51.684;5.142;2023-08-12T14:50:43;8.40;;;2.40;;
67839;SDS011;54636;51.684;5.142;2023-08-12T14:53:09;7.78;;;2.33;;
67839;SDS011;54636;51.684;5.142;2023-08-12T14:55:43;10.70;;;2.42;;
67839;SDS011;54636;51.684;5.142;2023-08-12T14:58:09;5.47;;;2.30;;